Time;durP1;ratioP1;P1;durP2;ratioP2;P2;SDS_P1;SDS_P2;PMS_P1;PMS_P2;Temp;Humidity;BMP_temperature;BMP_pressure;BME280_temperature;BME280_humidity;BME280_pressure;Samples;Min_cycle;Max_cycle;Signal;HPM_P1;HPM_P2
2022/12/12 00:09:01;;;;;;;3.45;1.88;;;;;;;;;;21345427;27;20474;-63
2022/12/12 00:19:04;;;;;;;2.08;1.13;;;;;;;;;;21345013;27;20066;-63
2022/12/12 00:29:11;;;;;;;4.70;1.35;;;;;;;;;;21343834;27;20534;-62
2022/12/12 00:39:17;;;;;;;2.78;1.38;;;;;;;;;;21342430;27;20418;-63
2022/12/12 00:49:21;;;;;;;2.05;1.00;;;;;;;;;;21342128;27;20168;-62
2022/12/12 00:59:24;;;;;;;3.10;1.10;;;;;;;;;;21340592;27;20092;-62
2022/12/12 01:09:26;;;;;;;2.45;1.20;;;;;;;;;;21340208;27;20039;-63
2022/12/12 01:19:29;;;;;;;5.38;1.40;;;;;;;;;;21338952;27;20050;-65
2022/12/12 01:29:33;;;;;;;5.00;1.40;;;;;;;;;;21339813;27;20474;-62
2022/12/12 01:39:38;;;;;;;3.42;1.60;;;;;;;;;;21339627;27;20505;-63
2022/12/12 01:49:44;;;;;;;3.88;1.30;;;;;;;;;;21338240;27;20070;-63
2022/12/12 01:59:47;;;;;;;3.15;1.50;;;;;;;;;;21335857;27;20055;-64
2022/12/12 02:09:50;;;;;;;2.75;1.70;;;;;;;;;;21334847;27;20047;-64
2022/12/12 02:20:06;;;;;;;2.33;1.58;;;;;;;;;;21335969;27;20058;-61
2022/12/12 02:30:08;;;;;;;4.18;2.00;;;;;;;;;;21334465;27;20402;-63
2022/12/12 02:40:22;;;;;;;5.57;2.10;;;;;;;;;;21334266;27;20502;-62
2022/12/12 02:50:44;;;;;;;4.38;1.70;;;;;;;;;;21334695;27;20513;-63
2022/12/12 03:01:12;;;;;;;2.40;1.60;;;;;;;;;;21333332;27;20062;-63
2022/12/12 03:11:17;;;;;;;6.30;2.30;;;;;;;;;;21333068;27;20115;-62
2022/12/12 03:21:40;;;;;;;4.20;1.70;;;;;;;;;;21334632;27;20647;-64
2022/12/12 03:31:52;;;;;;;5.18;1.90;;;;;;;;;;21348009;27;20126;-62
2022/12/12 03:42:07;;;;;;;5.50;1.88;;;;;;;;;;21346687;27;20047;-62
2022/12/12 03:52:23;;;;;;;2.93;1.73;;;;;;;;;;21347534;27;20074;-62
2022/12/12 04:02:30;;;;;;;3.58;1.90;;;;;;;;;;21345654;27;20046;-62
2022/12/12 04:12:58;;;;;;;3.83;1.83;;;;;;;;;;21344818;27;20051;-63
2022/12/12 04:23:14;;;;;;;5.03;2.50;;;;;;;;;;21344928;27;20054;-62
2022/12/12 04:33:20;;;;;;;8.25;4.38;;;;;;;;;;21342779;27;20046;-63
2022/12/12 04:43:34;;;;;;;4.70;2.70;;;;;;;;;;21342955;27;20082;-63
2022/12/12 04:53:43;;;;;;;5.78;2.35;;;;;;;;;;21340983;27;20038;-63
2022/12/12 05:04:00;;;;;;;5.80;2.30;;;;;;;;;;21340275;27;20058;-63
2022/12/12 05:14:03;;;;;;;4.72;2.35;;;;;;;;;;21340610;27;20038;-63
2022/12/12 05:24:06;;;;;;;4.07;2.30;;;;;;;;;;21339675;27;20167;-63
2022/12/12 05:34:09;;;;;;;5.78;2.40;;;;;;;;;;21337792;27;20042;-63
2022/12/12 05:44:12;;;;;;;7.13;2.40;;;;;;;;;;21337332;27;20058;-63
2022/12/12 05:54:14;;;;;;;6.72;2.88;;;;;;;;;;21337014;27;20058;-63
2022/12/12 06:04:16;;;;;;;18.15;8.02;;;;;;;;;;21336817;27;20398;-63
2022/12/12 06:14:19;;;;;;;8.65;3.50;;;;;;;;;;21335347;27;20053;-64
2022/12/12 06:24:21;;;;;;;9.60;3.67;;;;;;;;;;21335397;27;20051;-64
2022/12/12 06:34:24;;;;;;;15.20;4.38;;;;;;;;;;21335359;27;20562;-66
2022/12/12 06:44:26;;;;;;;8.80;3.88;;;;;;;;;;21335490;27;20050;-64
2022/12/12 06:54:28;;;;;;;7.28;3.95;;;;;;;;;;21335032;27;20043;-64
2022/12/12 07:04:30;;;;;;;10.88;4.03;;;;;;;;;;21349581;27;20059;-64
2022/12/12 07:14:33;;;;;;;7.93;5.07;;;;;;;;;;21350991;27;20043;-64
2022/12/12 07:24:35;;;;;;;11.90;5.68;;;;;;;;;;21350365;27;20206;-64
2022/12/12 07:34:38;;;;;;;11.27;6.28;;;;;;;;;;21352228;27;20043;-63
2022/12/12 07:44:40;;;;;;;13.20;6.03;;;;;;;;;;21347772;27;20047;-63
2022/12/12 07:54:42;;;;;;;9.13;4.55;;;;;;;;;;21345719;27;20100;-64
2022/12/12 08:04:44;;;;;;;7.68;3.63;;;;;;;;;;21346081;27;20058;-64
2022/12/12 08:14:46;;;;;;;15.32;5.68;;;;;;;;;;21342608;27;20046;-65
2022/12/12 08:24:49;;;;;;;7.38;2.83;;;;;;;;;;21343911;27;20115;-63
2022/12/12 08:34:57;;;;;;;9.00;3.42;;;;;;;;;;21342759;27;20095;-65
2022/12/12 08:44:59;;;;;;;11.50;3.20;;;;;;;;;;21342499;27;20086;-65
2022/12/12 08:55:01;;;;;;;11.35;3.85;;;;;;;;;;21323401;27;20111;-65
2022/12/12 09:05:04;;;;;;;7.80;3.65;;;;;;;;;;21341150;27;20134;-66
2022/12/12 09:15:06;;;;;;;10.88;4.50;;;;;;;;;;21340664;27;20099;-66
2022/12/12 09:25:09;;;;;;;9.82;3.95;;;;;;;;;;21339507;27;20133;-65
2022/12/12 09:35:11;;;;;;;10.20;4.43;;;;;;;;;;21338874;27;20085;-65
2022/12/12 09:45:14;;;;;;;10.32;4.50;;;;;;;;;;21337943;27;20505;-66
2022/12/12 09:55:25;;;;;;;17.33;5.78;;;;;;;;;;21307852;27;20047;-64
2022/12/12 10:05:34;;;;;;;16.95;6.20;;;;;;;;;;21247316;27;20108;-63
2022/12/12 10:15:37;;;;;;;;;;;;;;;;;;21248727;27;20093;-62
2022/12/12 10:25:43;;;;;;;18.00;5.85;;;;;;;;;;21248312;27;19920;-62
2022/12/12 10:35:57;;;;;;;12.25;4.50;;;;;;;;;;21246972;27;20050;-63
2022/12/12 10:46:20;;;;;;;13.85;4.97;;;;;;;;;;21247776;28;20079;-61
2022/12/12 10:56:24;;;;;;;13.95;6.55;;;;;;;;;;21247613;28;20119;-61
2022/12/12 11:06:35;;;;;;;21.58;6.90;;;;;;;;;;21247233;28;20415;-61
2022/12/12 11:16:42;;;;;;;13.50;5.47;;;;;;;;;;21246208;28;20075;-61
2022/12/12 11:26:50;;;;;;;5.80;3.20;;;;;;;;;;21246636;27;20044;-63
2022/12/12 11:36:53;;;;;;;11.30;2.53;;;;;;;;;;21245519;28;20047;-61
2022/12/12 11:46:55;;;;;;;10.32;2.85;;;;;;;;;;21253358;27;20047;-62
2022/12/12 11:57:13;;;;;;;8.43;1.90;;;;;;;;;;21259759;27;20050;-63
2022/12/12 12:07:15;;;;;;;7.00;1.67;;;;;;;;;;21259811;27;20043;-62
2022/12/12 12:17:19;;;;;;;10.02;2.65;;;;;;;;;;21259926;27;20406;-62
2022/12/12 12:27:41;;;;;;;4.75;1.67;;;;;;;;;;21258595;27;20453;-62
2022/12/12 12:37:43;;;;;;;8.75;1.67;;;;;;;;;;21257589;27;20043;-61
2022/12/12 12:47:55;;;;;;;5.10;1.83;;;;;;;;;;21256068;27;20134;-61
2022/12/12 12:57:59;;;;;;;8.65;2.85;;;;;;;;;;21253681;27;20051;-62
2022/12/12 13:08:12;;;;;;;3.55;1.90;;;;;;;;;;21255234;27;20045;-61
2022/12/12 13:18:15;;;;;;;3.42;1.45;;;;;;;;;;21254852;27;20130;-62
2022/12/12 13:28:22;;;;;;;4.70;1.58;;;;;;;;;;21254119;27;20445;-61
2022/12/12 13:38:32;;;;;;;4.75;1.58;;;;;;;;;;21252304;27;20150;-61
2022/12/12 13:48:47;;;;;;;6.30;1.33;;;;;;;;;;21251167;27;20486;-61
2022/12/12 13:58:49;;;;;;;7.28;1.20;;;;;;;;;;21250649;27;20051;-63
2022/12/12 14:08:53;;;;;;;6.45;1.60;;;;;;;;;;21250747;27;20487;-62
2022/12/12 14:18:58;;;;;;;3.30;1.23;;;;;;;;;;21249689;27;20376;-61
2022/12/12 14:29:16;;;;;;;4.43;1.83;;;;;;;;;;21249208;27;20083;-62
2022/12/12 14:39:30;;;;;;;7.20;1.70;;;;;;;;;;21249059;27;20043;-62
2022/12/12 14:49:33;;;;;;;5.22;1.60;;;;;;;;;;21249704;28;20047;-63
2022/12/12 14:59:37;;;;;;;5.25;1.73;;;;;;;;;;21250227;28;20112;-61
2022/12/12 15:09:40;;;;;;;7.47;2.80;;;;;;;;;;21231370;28;20406;-62
2022/12/12 15:19:44;;;;;;;3.53;1.70;;;;;;;;;;21251738;27;20043;-62
2022/12/12 15:29:48;;;;;;;6.25;1.75;;;;;;;;;;21263201;27;20077;-64
2022/12/12 15:40:01;;;;;;;2.90;1.10;;;;;;;;;;21262585;27;20176;-62
2022/12/12 15:50:09;;;;;;;6.22;1.38;;;;;;;;;;21261819;27;20047;-62
2022/12/12 16:00:41;;;;;;;4.70;2.13;;;;;;;;;;21260475;27;20568;-62
2022/12/12 16:10:53;;;;;;;4.30;1.48;;;;;;;;;;20833582;28;20412;-61
2022/12/12 16:20:56;;;;;;;0.90;0.50;;;;;;;;;;20815055;28;20049;-62
2022/12/12 16:31:00;;;;;;;5.90;1.80;;;;;;;;;;20830004;28;20088;-62
2022/12/12 16:41:07;;;;;;;4.78;1.70;;;;;;;;;;20949133;27;20042;-62
2022/12/12 16:51:14;;;;;;;27.05;16.38;;;;;;;;;;21256189;27;20047;-62
2022/12/12 17:01:16;;;;;;;1.05;0.73;;;;;;;;;;21255376;27;20059;-61
2022/12/12 17:11:18;;;;;;;2.15;0.85;;;;;;;;;;21254851;27;20051;-62
2022/12/12 17:21:20;;;;;;;1.83;0.80;;;;;;;;;;21253965;27;20054;-62
2022/12/12 17:31:22;;;;;;;3.67;1.08;;;;;;;;;;21252726;27;20126;-63
2022/12/12 17:41:24;;;;;;;1.85;0.98;;;;;;;;;;21251558;27;20058;-62
2022/12/12 17:51:29;;;;;;;2.45;0.93;;;;;;;;;;21251144;27;20043;-61
2022/12/12 18:01:31;;;;;;;3.05;1.00;;;;;;;;;;21250818;27;20055;-61
2022/12/12 18:11:34;;;;;;;2.58;1.40;;;;;;;;;;21251148;27;20096;-62
2022/12/12 18:21:38;;;;;;;2.65;1.50;;;;;;;;;;21250579;27;20447;-62
2022/12/12 18:31:41;;;;;;;3.22;1.60;;;;;;;;;;21248690;27;20043;-62
2022/12/12 18:41:44;;;;;;;2.75;1.80;;;;;;;;;;21249209;27;20474;-62
2022/12/12 18:51:45;;;;;;;1.98;1.35;;;;;;;;;;21250319;27;20122;-61
2022/12/12 19:01:49;;;;;;;2.42;0.73;;;;;;;;;;21266965;27;20099;-61
2022/12/12 19:11:52;;;;;;;1.45;0.90;;;;;;;;;;21265520;27;20047;-62
2022/12/12 19:21:54;;;;;;;1.20;0.68;;;;;;;;;;21263504;27;20058;-62
2022/12/12 19:31:56;;;;;;;2.30;0.80;;;;;;;;;;21262535;27;20047;-62
2022/12/12 19:41:58;;;;;;;1.35;0.60;;;;;;;;;;21262726;27;20509;-62
2022/12/12 19:51:59;;;;;;;1.67;0.70;;;;;;;;;;21262088;27;20497;-62
2022/12/12 20:02:04;;;;;;;1.35;0.80;;;;;;;;;;21260539;27;20514;-63
2022/12/12 20:12:06;;;;;;;4.00;1.17;;;;;;;;;;21259673;27;20500;-61
2022/12/12 20:22:08;;;;;;;4.80;1.67;;;;;;;;;;21239720;27;20073;-62
2022/12/12 20:32:12;;;;;;;4.00;1.60;;;;;;;;;;21257675;27;20089;-62
2022/12/12 20:42:14;;;;;;;4.88;1.23;;;;;;;;;;21257676;27;20464;-63
2022/12/12 20:52:16;;;;;;;8.52;1.50;;;;;;;;;;21256213;27;20039;-62
2022/12/12 21:02:18;;;;;;;4.65;1.08;;;;;;;;;;21255314;27;20080;-62
2022/12/12 21:12:20;;;;;;;3.92;1.35;;;;;;;;;;21255062;27;20043;-63
2022/12/12 21:22:22;;;;;;;8.00;1.65;;;;;;;;;;21253884;27;20050;-62
2022/12/12 21:32:24;;;;;;;6.82;1.60;;;;;;;;;;21253187;27;20156;-62
2022/12/12 21:42:27;;;;;;;7.07;1.65;;;;;;;;;;21252709;27;20100;-61
2022/12/12 21:52:29;;;;;;;4.10;1.10;;;;;;;;;;21252041;27;20054;-61
2022/12/12 22:02:32;;;;;;;5.45;1.20;;;;;;;;;;21251062;27;20050;-61
2022/12/12 22:12:34;;;;;;;7.75;1.50;;;;;;;;;;21251291;27;20121;-62
2022/12/12 22:22:37;;;;;;;5.50;1.40;;;;;;;;;;21249978;27;20043;-62
2022/12/12 22:32:42;;;;;;;5.30;1.45;;;;;;;;;;21248242;27;20501;-62
2022/12/12 22:42:45;;;;;;;5.70;1.63;;;;;;;;;;21248435;27;20134;-61
2022/12/12 22:52:48;;;;;;;6.20;1.20;;;;;;;;;;21248193;28;20074;-63
2022/12/12 23:02:52;;;;;;;6.75;1.70;;;;;;;;;;21247596;28;20043;-62
2022/12/12 23:12:54;;;;;;;7.10;1.48;;;;;;;;;;21229875;28;20567;-61
2022/12/12 23:22:59;;;;;;;10.75;2.78;;;;;;;;;;21247880;28;20051;-63
2022/12/12 23:33:09;;;;;;;7.93;1.40;;;;;;;;;;21247116;28;20340;-64
2022/12/12 23:43:14;;;;;;;12.80;2.00;;;;;;;;;;21254838;27;20058;-64
2022/12/12 23:53:18;;;;;;;9.60;1.45;;;;;;;;;;21263903;27;20050;-64
